We konden geen weer-waarchuwingen ophalen. Ga rechtstreeks naar de Meteoalarm site : www.meteoalarm.eu en controleer daar .


Bezoek ook deze websites:

Mijn andere website

Weerstation Noordbergum

Weerstation in Leuven


U vindt ons ook hier:

Weather Underground


METAR rapporten vliegvelden

   
EHGG - Groningen/Eelde, Netherlands
Afstand tot: ONO 18 km
Gewijzigd: 23-02-2019 01:25
Gedeeltelijk bewolkt  
Gedeeltelijk bewolkt  
   Wind: OZO 13 km/h
Wind: OZO 13 km/h
Temperatuur: 4°C
Voelt als: 1°C
Dauwpunt: 2°C
Vochtigheid: 87%
Barometer: 1039 hPa
Bewolking: Gedeeltelijk bewolkt
Zicht: meer dan 10 km
Bewolking: Gedeeltelijk bewolkt
EHGG 230025Z AUTO 11007KT 080V160 9999 NSC 04/02 Q1039
EHLW - Leeuwarden Rnlaf, Netherlands
Afstand tot: WNW 45 km
Gewijzigd: 23-02-2019 01:25
Nevel, Bewolking  
Nevel, Bewolking  
   Wind: ZO 14.8 km/h
Wind: ZO 14.8 km/h
Temperatuur: 6°C
Voelt als: 3°C
Dauwpunt: 5°C
Vochtigheid: 93%
Barometer: 1039 hPa
Bewolking: Bewolking
Zicht: 8 km
Bewolking: Grotendeels bewolkt 31000 ft,
Bewolking 36000 ft
EHLW 230025Z AUTO 13008KT 080V150 8000 BR BKN310 OVC360 06/05 Q1039 BLU
EHVL - Vlieland Island, Netherlands
Afstand tot: WNW 98 km
Gewijzigd: 22-02-2019 22:55
Verouderd
Nevel, Bewolking  
Nevel, Bewolking  
   Wind: OZO 20.4 km/h
Wind: OZO 20.4 km/h
Temperatuur: 8°C
Voelt als: 5°C
Dauwpunt: 7°C
Vochtigheid: 93%
Barometer: 1039 hPa
Bewolking: Bewolking
Zicht: 7 km
Bewolking: Bewolking 1700 ft
EHVL 222155Z AUTO 12011KT 7000 BR OVC017 08/07 Q1039 WHT
EHKD - De Kooy (navy), Netherlands
Afstand tot: W 106 km
Gewijzigd: 23-02-2019 01:39
Nevel, Helder  
Nevel, Helder  
   Wind: OZO 13 km/h
Wind: OZO 13 km/h
Temperatuur: 6°C
Voelt als: 3°C
Dauwpunt: 6°C
Vochtigheid: 100%
Barometer: 1038 hPa
Bewolking: Helder
Zicht: 4 km
Bewolking: Helder
EHKD 230039Z AUTO 12007KT 3700 BR NCD 06/06 Q1038 GRN
EHDL - Deelen Rnlafb, Netherlands
Afstand tot: ZZW 112 km
Gewijzigd: 23-02-2019 01:25
Nevel, Bewolking  
Nevel, Bewolking  
   Wind: varieert 9.3 km/h
Wind: varieert 9.3 km/h
Temperatuur: 6°C
Voelt als: 4°C
Dauwpunt: 5°C
Vochtigheid: 93%
Barometer: 1038 hPa
Bewolking: Bewolking
Zicht: 5 km
Bewolking: Bewolking 32000 ft
EHDL 230025Z AUTO VRB05KT 4600 BR OVC320 06/05 Q1038 GRN
EHAM - Amsterdam/Schiph, Netherlands
Afstand tot: ZW 132 km
Gewijzigd: 23-02-2019 01:25
Gedeeltelijk bewolkt  
Gedeeltelijk bewolkt  
   Wind: OZO 13 km/h
Wind: OZO 13 km/h
Temperatuur: 7°C
Voelt als: 4°C
Dauwpunt: 6°C
Vochtigheid: 93%
Barometer: 1038 hPa
Bewolking: Gedeeltelijk bewolkt
Zicht: 5 km
Bewolking: Gedeeltelijk bewolkt
EHAM 230025Z 11007KT 5000 NSC 07/06 Q1038 NOSIG

Script ontwikkeld door  Saratoga-weather.org Aangepast voor de template door  Weerstation Leuven

Apparatuur in gebruik:

Weerstation
Davis VP2

Weerprogramma
Meteobridge

Weercomputer
TP-link TL-MR3020

Webleverancier
Versio

Davis VP2

Meteobridge

TP-link TL-MR3020

Versio